createdAt,value
2022-11-21T00:01:33.366Z,14.55
2022-11-21T00:04:00.149Z,14.52
2022-11-21T00:06:27.101Z,18.83
2022-11-21T00:08:55.464Z,19.95
2022-11-21T00:11:22.318Z,16.02
2022-11-21T00:13:49.085Z,18.42
2022-11-21T00:16:16.537Z,16.02
2022-11-21T00:18:44.378Z,15.70
2022-11-21T00:21:16.862Z,17.15
2022-11-21T00:23:44.812Z,15.68
2022-11-21T00:26:13.501Z,15.95
2022-11-21T00:28:40.629Z,15.10
2022-11-21T00:31:07.531Z,15.15
2022-11-21T00:33:38.932Z,16.50
2022-11-21T00:36:09.696Z,13.60
2022-11-21T00:38:36.893Z,13.70
2022-11-21T00:41:03.837Z,17.30
2022-11-21T00:43:30.584Z,14.82
2022-11-21T00:45:58.607Z,12.50
2022-11-21T00:48:25.363Z,15.27
2022-11-21T00:50:52.199Z,17.60
2022-11-21T00:53:18.980Z,14.52
2022-11-21T00:55:45.811Z,15.43
2022-11-21T00:58:12.625Z,16.08
2022-11-21T01:00:39.507Z,13.75
2022-11-21T01:03:06.403Z,13.90
2022-11-21T01:05:33.640Z,20.17
2022-11-21T01:08:00.524Z,15.70
2022-11-21T01:10:27.313Z,19.90
2022-11-21T01:12:54.115Z,14.80
2022-11-21T01:15:20.921Z,17.33
2022-11-21T01:17:47.801Z,16.58
2022-11-21T01:20:14.749Z,15.90
2022-11-21T01:22:41.465Z,14.20
2022-11-21T01:25:08.479Z,22.42
2022-11-21T01:27:35.458Z,17.75
2022-11-21T01:30:02.198Z,16.00
2022-11-21T01:32:28.896Z,17.00
2022-11-21T01:34:55.681Z,18.05
2022-11-21T01:37:22.361Z,14.75
2022-11-21T01:39:49.050Z,16.17
2022-11-21T01:42:15.726Z,15.52
2022-11-21T01:44:47.200Z,13.50
2022-11-21T01:47:13.903Z,15.57
2022-11-21T01:49:42.146Z,21.27
2022-11-21T01:52:12.012Z,17.67
2022-11-21T01:54:44.590Z,15.85
2022-11-21T01:57:35.372Z,15.98
2022-11-21T02:00:13.104Z,21.08
2022-11-21T02:02:46.262Z,25.15
2022-11-21T02:05:20.821Z,16.20
2022-11-21T02:07:49.465Z,16.80
2022-11-21T02:10:17.056Z,17.48
2022-11-21T02:12:46.208Z,17.25
2022-11-21T02:15:13.095Z,16.70
2022-11-21T02:17:39.932Z,19.15
2022-11-21T02:20:09.199Z,19.70
2022-11-21T02:23:13.707Z,14.43
2022-11-21T02:25:42.940Z,15.55
2022-11-21T02:28:14.701Z,21.33
2022-11-21T02:30:42.621Z,17.10
2022-11-21T02:33:11.026Z,16.73
2022-11-21T02:35:37.955Z,18.58
2022-11-21T02:38:22.547Z,15.57
2022-11-21T02:40:54.924Z,13.80
2022-11-21T02:43:28.594Z,20.02
2022-11-21T02:45:56.194Z,17.42
2022-11-21T02:48:22.909Z,16.48
2022-11-21T02:50:49.607Z,16.80
2022-11-21T02:53:18.016Z,17.92
2022-11-21T02:55:45.420Z,18.90
2022-11-21T02:58:12.803Z,18.50
2022-11-21T03:00:41.316Z,12.13
2022-11-21T03:03:08.814Z,17.50
2022-11-21T03:05:35.876Z,17.42
2022-11-21T03:08:03.189Z,16.83
2022-11-21T03:10:29.851Z,18.10
2022-11-21T03:13:01.069Z,16.52
2022-11-21T03:15:34.464Z,21.15
2022-11-21T03:18:02.761Z,18.83
2022-11-21T03:20:30.902Z,17.17
2022-11-21T03:22:57.696Z,16.45
2022-11-21T03:25:24.496Z,15.35
2022-11-21T03:27:53.348Z,14.90
2022-11-21T03:30:24.720Z,17.95
2022-11-21T03:32:54.620Z,19.77
2022-11-21T03:35:21.297Z,15.13
2022-11-21T03:37:48.973Z,13.98
2022-11-21T03:40:15.709Z,17.52
2022-11-21T03:42:42.414Z,22.73
2022-11-21T03:45:09.473Z,15.27
2022-11-21T03:47:36.334Z,15.15
2022-11-21T03:50:03.301Z,18.02
2022-11-21T03:52:30.441Z,19.25
2022-11-21T03:54:57.168Z,17.50
2022-11-21T03:57:23.898Z,15.73
2022-11-21T03:59:50.612Z,17.77
2022-11-21T04:02:17.419Z,18.90
2022-11-21T04:04:44.122Z,17.42
2022-11-21T04:07:10.840Z,12.68
2022-11-21T04:09:37.959Z,14.38
2022-11-21T04:12:07.691Z,20.10
2022-11-21T04:14:34.823Z,18.73
2022-11-21T04:17:01.567Z,14.90
2022-11-21T04:19:28.264Z,16.45
2022-11-21T04:21:54.986Z,17.63
2022-11-21T04:24:21.783Z,21.83
2022-11-21T04:26:48.458Z,20.52
2022-11-21T04:29:15.196Z,18.63
2022-11-21T04:31:41.895Z,17.67
2022-11-21T04:34:08.575Z,17.13
2022-11-21T04:36:35.356Z,18.15
2022-11-21T04:39:02.499Z,17.92
2022-11-21T04:41:29.223Z,19.75
2022-11-21T04:43:55.897Z,16.58
2022-11-21T04:46:22.610Z,17.58
2022-11-21T04:48:49.300Z,15.77
2022-11-21T04:51:16.042Z,19.80
2022-11-21T04:53:43.304Z,18.83
2022-11-21T04:56:10.440Z,17.27
2022-11-21T04:58:37.170Z,17.85
2022-11-21T05:01:08.294Z,20.00
2022-11-21T05:03:35.755Z,20.33
2022-11-21T05:06:03.040Z,19.70
2022-11-21T05:08:29.878Z,19.77
2022-11-21T05:11:15.094Z,22.15
2022-11-21T05:13:41.886Z,18.70
2022-11-21T05:16:08.611Z,21.15
2022-11-21T05:18:35.320Z,21.73
2022-11-21T05:21:02.975Z,20.73
2022-11-21T05:23:29.798Z,18.85
2022-11-21T05:25:56.605Z,19.90
2022-11-21T05:28:23.301Z,21.45
2022-11-21T05:30:49.997Z,18.42
2022-11-21T05:33:16.998Z,20.88
2022-11-21T05:35:44.008Z,17.17
2022-11-21T05:38:10.842Z,18.35
2022-11-21T05:40:37.627Z,23.95
2022-11-21T05:43:22.999Z,20.17
2022-11-21T05:45:50.318Z,19.60
2022-11-21T05:48:17.820Z,21.88
2022-11-21T05:50:48.404Z,25.77
2022-11-21T05:53:16.482Z,26.20
2022-11-21T05:55:43.606Z,27.75
2022-11-21T05:58:10.953Z,27.13
2022-11-21T06:00:38.256Z,29.15
2022-11-21T06:03:25.007Z,28.23
2022-11-21T06:05:51.974Z,29.02
2022-11-21T06:08:19.306Z,27.65
2022-11-21T06:10:46.480Z,20.85
2022-11-21T06:13:22.377Z,23.02
2022-11-21T06:15:53.930Z,24.33
2022-11-21T06:18:21.185Z,28.17
2022-11-21T06:20:47.993Z,25.27
2022-11-21T06:23:14.721Z,23.92
2022-11-21T06:25:42.443Z,21.55
2022-11-21T06:28:10.291Z,24.92
2022-11-21T06:30:37.760Z,26.55
2022-11-21T06:33:05.869Z,23.75
2022-11-21T06:35:32.978Z,28.17
2022-11-21T06:37:59.747Z,23.00
2022-11-21T06:40:26.466Z,19.50
2022-11-21T06:42:53.327Z,23.73
2022-11-21T06:45:20.044Z,21.55
2022-11-21T06:47:46.805Z,22.10
2022-11-21T06:50:13.557Z,21.02
2022-11-21T06:52:40.321Z,21.25
2022-11-21T06:55:07.790Z,24.75
2022-11-21T06:57:34.530Z,23.35
2022-11-21T07:00:01.255Z,23.70
2022-11-21T07:02:27.956Z,27.50
2022-11-21T07:04:54.662Z,27.55
2022-11-21T07:07:21.435Z,23.08
2022-11-21T07:09:48.323Z,23.48
2022-11-21T07:12:33.787Z,26.20
2022-11-21T07:15:00.505Z,27.45
2022-11-21T07:17:27.290Z,21.77
2022-11-21T07:19:54.010Z,24.20
2022-11-21T07:22:20.787Z,25.85
2022-11-21T07:24:47.487Z,22.20
2022-11-21T07:27:14.190Z,24.27
2022-11-21T07:29:40.878Z,21.58
2022-11-21T07:32:07.567Z,23.05
2022-11-21T07:34:34.244Z,27.23
2022-11-21T07:37:01.334Z,28.00
2022-11-21T07:39:28.377Z,29.85
2022-11-21T07:41:55.839Z,23.20
2022-11-21T07:44:22.523Z,28.50
2022-11-21T07:46:49.267Z,28.70
2022-11-21T07:49:15.976Z,30.10
2022-11-21T07:51:42.618Z,35.30
2022-11-21T07:54:09.480Z,39.85
2022-11-21T07:56:36.259Z,41.35
2022-11-21T07:59:03.019Z,26.38
2022-11-21T08:01:29.708Z,28.42
2022-11-21T08:03:56.578Z,33.25
2022-11-21T08:06:23.261Z,40.42
2022-11-21T08:08:54.100Z,39.38
2022-11-21T08:11:21.092Z,32.42
2022-11-21T08:13:47.999Z,39.90
2022-11-21T08:16:14.669Z,44.55
2022-11-21T08:18:41.350Z,37.70
2022-11-21T08:21:08.088Z,43.78
2022-11-21T08:23:34.814Z,46.58
2022-11-21T08:26:01.551Z,37.35
2022-11-21T08:28:28.290Z,37.63
2022-11-21T08:30:55.011Z,40.92
2022-11-21T08:33:23.852Z,45.60
2022-11-21T08:35:50.535Z,37.45
2022-11-21T08:38:17.206Z,32.55
2022-11-21T08:40:43.959Z,34.33
2022-11-21T08:43:10.711Z,47.40
2022-11-21T08:45:39.176Z,36.42
2022-11-21T08:48:11.452Z,32.38
2022-11-21T08:50:38.351Z,40.35
2022-11-21T08:53:05.043Z,33.80
2022-11-21T08:55:31.781Z,35.78
2022-11-21T08:57:58.840Z,30.00
2022-11-21T09:00:26.118Z,34.08
2022-11-21T09:02:52.971Z,48.25
2022-11-21T09:05:19.750Z,37.88
2022-11-21T09:07:47.516Z,37.15
2022-11-21T09:10:14.780Z,35.42
2022-11-21T09:12:41.501Z,40.10
2022-11-21T09:15:40.349Z,41.13
2022-11-21T09:18:08.110Z,31.27
2022-11-21T09:20:40.605Z,29.88
2022-11-21T09:23:08.947Z,33.47
2022-11-21T09:25:35.682Z,29.63
2022-11-21T09:28:03.127Z,25.25
2022-11-21T09:30:29.996Z,27.23
2022-11-21T09:33:04.361Z,28.80
2022-11-21T09:35:31.494Z,28.15
2022-11-21T09:37:58.714Z,32.50
2022-11-21T09:40:25.964Z,31.85
2022-11-21T09:43:01.599Z,32.38
2022-11-21T09:45:41.875Z,33.20
2022-11-21T09:48:15.818Z,31.92
2022-11-21T09:50:54.043Z,29.55
2022-11-21T09:53:24.138Z,35.67
2022-11-21T09:56:06.221Z,34.55
2022-11-21T09:58:40.556Z,31.30
2022-11-21T10:01:14.438Z,32.05
2022-11-21T10:03:47.309Z,34.25
2022-11-21T10:06:21.421Z,37.72
2022-11-21T10:09:06.735Z,31.65
2022-11-21T10:12:19.841Z,33.03
2022-11-21T10:15:07.800Z,30.63
2022-11-21T10:18:24.975Z,33.28
2022-11-21T10:21:15.597Z,32.30
2022-11-21T10:24:20.290Z,30.33
2022-11-21T10:27:31.541Z,32.28
2022-11-21T10:30:04.306Z,31.17
2022-11-21T10:32:40.672Z,29.10
2022-11-21T10:35:19.248Z,27.83
2022-11-21T10:37:51.874Z,31.27
2022-11-21T10:40:48.941Z,25.42
2022-11-21T10:43:53.370Z,24.52
2022-11-21T10:46:20.493Z,28.38
2022-11-21T10:49:00.510Z,26.85
2022-11-21T10:51:53.968Z,30.90
2022-11-21T10:54:32.779Z,27.17
2022-11-21T10:57:14.586Z,27.00
2022-11-21T10:59:41.310Z,24.83
2022-11-21T11:02:13.943Z,22.73
2022-11-21T11:04:47.600Z,25.33
2022-11-21T11:07:25.600Z,23.75
2022-11-21T11:09:53.350Z,26.77
2022-11-21T11:12:25.716Z,18.38
2022-11-21T11:14:56.072Z,24.25
2022-11-21T11:17:28.619Z,20.48
2022-11-21T11:20:33.293Z,23.45
2022-11-21T11:23:00.314Z,20.33
2022-11-21T11:25:27.037Z,20.67
2022-11-21T11:27:53.791Z,23.27
2022-11-21T11:30:21.242Z,30.40
2022-11-21T11:32:48.133Z,22.70
2022-11-21T11:35:17.678Z,21.90
2022-11-21T11:38:03.576Z,19.52
2022-11-21T11:40:37.588Z,18.45
2022-11-21T11:43:59.252Z,21.58
2022-11-21T11:46:59.040Z,19.73
2022-11-21T11:49:53.328Z,22.55
2022-11-21T11:52:24.461Z,21.65
2022-11-21T11:55:03.467Z,22.13
2022-11-21T11:57:32.530Z,19.88
2022-11-21T12:00:27.556Z,22.10
2022-11-21T12:02:58.600Z,17.08
2022-11-21T12:05:27.233Z,18.60
2022-11-21T12:11:15.191Z,19.30
2022-11-21T12:13:43.768Z,16.45
2022-11-21T12:16:14.362Z,17.73
2022-11-21T12:19:05.799Z,16.38
2022-11-21T12:21:32.622Z,19.33
2022-11-21T12:24:03.050Z,16.42
2022-11-21T12:26:38.434Z,17.45
2022-11-21T12:29:32.359Z,17.75
2022-11-21T12:32:08.003Z,15.15
2022-11-21T12:35:05.487Z,15.63
2022-11-21T12:38:14.282Z,16.95
2022-11-21T12:40:51.956Z,16.50
2022-11-21T12:43:59.532Z,14.07
2022-11-21T12:46:42.518Z,19.92
2022-11-21T12:49:33.702Z,17.60
2022-11-21T12:52:51.936Z,17.90
2022-11-21T12:55:35.377Z,21.58
2022-11-21T12:58:33.015Z,15.55
2022-11-21T13:01:02.880Z,15.48
2022-11-21T13:04:01.911Z,17.25
2022-11-21T13:06:33.623Z,19.42
2022-11-21T13:09:05.566Z,14.68
2022-11-21T13:12:01.527Z,15.13
2022-11-21T13:14:37.207Z,15.45
2022-11-21T13:17:12.923Z,14.70
2022-11-21T13:20:13.433Z,16.25
2022-11-21T13:22:40.121Z,14.77
2022-11-21T13:25:10.150Z,13.15
2022-11-21T13:27:41.778Z,12.68
2022-11-21T13:30:15.119Z,14.73
2022-11-21T13:32:47.124Z,14.93
2022-11-21T13:35:19.437Z,13.55
2022-11-21T13:37:52.474Z,20.98
2022-11-21T13:40:31.054Z,14.65
2022-11-21T13:45:59.185Z,14.13
2022-11-21T13:48:30.488Z,16.08
2022-11-21T13:51:15.243Z,17.30
2022-11-21T13:54:03.903Z,16.42
2022-11-21T13:57:01.859Z,15.45
2022-11-21T13:59:40.708Z,16.27
2022-11-21T14:02:26.032Z,13.82
2022-11-21T14:05:17.797Z,15.55
2022-11-21T14:07:45.415Z,15.60
2022-11-21T14:10:42.767Z,18.17
2022-11-21T14:13:23.606Z,15.90
2022-11-21T14:16:05.731Z,14.95
2022-11-21T14:18:33.314Z,17.15
2022-11-21T14:21:01.070Z,15.32
2022-11-21T14:23:32.418Z,16.30
2022-11-21T14:26:13.778Z,19.67
2022-11-21T14:28:40.533Z,18.30
2022-11-21T14:31:09.549Z,16.70
2022-11-21T14:33:37.494Z,18.67
2022-11-21T14:36:09.503Z,17.58
2022-11-21T14:39:02.105Z,16.95
2022-11-21T14:41:37.264Z,16.95
2022-11-21T14:44:07.157Z,19.20
2022-11-21T14:46:36.461Z,21.77
2022-11-21T14:49:18.660Z,13.82
2022-11-21T14:54:22.052Z,18.98
2022-11-21T14:56:55.756Z,23.90
2022-11-21T14:59:26.352Z,16.80
2022-11-21T15:02:17.928Z,19.13
2022-11-21T15:04:46.442Z,18.57
2022-11-21T15:07:31.310Z,19.35
2022-11-21T15:10:28.753Z,17.48
2022-11-21T15:12:48.355Z,30.25
2022-11-21T15:15:38.847Z,21.10
2022-11-21T15:18:26.882Z,16.38
2022-11-21T15:21:01.448Z,19.05
2022-11-21T15:23:30.595Z,18.25
2022-11-21T15:26:01.252Z,19.67
2022-11-21T15:28:29.826Z,20.15
2022-11-21T15:31:17.094Z,17.90
2022-11-21T15:34:19.696Z,17.58
2022-11-21T15:36:44.997Z,19.20
2022-11-21T15:39:21.771Z,20.27
2022-11-21T15:41:48.515Z,18.08
2022-11-21T15:44:20.264Z,19.85
2022-11-21T15:46:50.628Z,20.65
2022-11-21T15:49:33.770Z,21.67
2022-11-21T15:52:09.743Z,21.35
2022-11-21T15:54:38.060Z,20.27
2022-11-21T15:57:04.720Z,23.80
2022-11-21T15:59:31.869Z,24.40
2022-11-21T16:01:59.029Z,24.13
2022-11-21T16:04:26.395Z,25.58
2022-11-21T16:06:56.045Z,22.55
2022-11-21T16:09:22.957Z,20.80
2022-11-21T16:11:49.707Z,20.65
2022-11-21T16:14:18.530Z,22.30
2022-11-21T16:16:47.099Z,21.90
2022-11-21T16:19:15.349Z,24.67
2022-11-21T16:21:42.536Z,20.23
2022-11-21T16:24:09.439Z,22.38
2022-11-21T16:26:36.162Z,23.77
2022-11-21T16:29:05.316Z,23.63
2022-11-21T16:31:32.683Z,22.45
2022-11-21T16:34:00.621Z,24.02
2022-11-21T16:36:29.438Z,22.42
2022-11-21T16:39:00.594Z,21.88
2022-11-21T16:41:28.782Z,23.85
2022-11-21T16:43:55.856Z,24.55
2022-11-21T16:46:24.675Z,24.08
2022-11-21T16:49:00.491Z,21.85
2022-11-21T16:51:28.611Z,20.52
2022-11-21T16:53:57.537Z,24.42
2022-11-21T16:56:24.857Z,22.50
2022-11-21T16:58:51.762Z,22.23
2022-11-21T17:01:24.325Z,27.52
2022-11-21T17:03:51.571Z,19.77
2022-11-21T17:06:21.359Z,24.00
2022-11-21T17:08:48.099Z,22.50
2022-11-21T17:11:16.192Z,20.77
2022-11-21T17:13:44.671Z,21.70
2022-11-21T17:16:12.625Z,21.00
2022-11-21T17:18:40.545Z,21.83
2022-11-21T17:21:09.702Z,18.60
2022-11-21T17:23:38.265Z,25.00
2022-11-21T17:26:07.146Z,20.33
2022-11-21T17:28:34.941Z,18.08
2022-11-21T17:31:13.241Z,22.25
2022-11-21T17:33:40.793Z,21.17
2022-11-21T17:36:14.438Z,25.38
2022-11-21T17:38:42.975Z,27.50
2022-11-21T17:41:12.030Z,28.52
2022-11-21T17:43:39.126Z,29.83
2022-11-21T17:46:10.171Z,24.67
2022-11-21T17:48:38.127Z,30.05
2022-11-21T17:51:10.524Z,22.98
2022-11-21T17:53:41.352Z,27.48
2022-11-21T17:56:11.280Z,26.63
2022-11-21T17:58:38.001Z,26.02
2022-11-21T18:01:06.685Z,27.35
2022-11-21T18:03:35.609Z,28.10
2022-11-21T18:06:07.974Z,26.85
2022-11-21T18:08:39.936Z,26.73
2022-11-21T18:11:08.254Z,30.63
2022-11-21T18:13:36.323Z,24.73
2022-11-21T18:16:08.168Z,27.27
2022-11-21T18:18:36.103Z,21.85
2022-11-21T18:21:13.952Z,28.80
2022-11-21T18:23:40.665Z,27.55
2022-11-21T18:26:14.505Z,25.73
2022-11-21T18:28:42.075Z,25.90
2022-11-21T18:31:14.066Z,33.03
2022-11-21T18:33:41.948Z,31.55
2022-11-21T18:36:10.736Z,28.17
2022-11-21T18:38:48.716Z,31.52
2022-11-21T18:41:25.805Z,30.60
2022-11-21T18:44:00.269Z,29.40
2022-11-21T18:46:28.881Z,26.58
2022-11-21T18:49:06.319Z,32.50
2022-11-21T18:51:34.826Z,28.45
2022-11-21T18:54:05.241Z,26.20
2022-11-21T18:56:32.333Z,27.15
2022-11-21T18:58:59.474Z,26.10
2022-11-21T19:01:29.225Z,34.75
2022-11-21T19:03:56.660Z,35.72
2022-11-21T19:06:25.594Z,27.27
2022-11-21T19:08:54.106Z,33.10
2022-11-21T19:11:24.188Z,29.08
2022-11-21T19:13:51.418Z,26.33
2022-11-21T19:16:20.379Z,30.15
2022-11-21T19:19:05.505Z,26.60
2022-11-21T19:21:39.591Z,25.42
2022-11-21T19:24:07.151Z,28.30
2022-11-21T19:26:33.880Z,27.60
2022-11-21T19:29:00.947Z,25.35
2022-11-21T19:31:27.831Z,32.97
2022-11-21T19:33:54.529Z,32.42
2022-11-21T19:36:22.975Z,30.58
2022-11-21T19:38:51.276Z,34.20
2022-11-21T19:41:20.105Z,30.38
2022-11-21T19:43:51.818Z,30.60
2022-11-21T19:46:21.466Z,32.40
2022-11-21T19:48:49.735Z,29.65
2022-11-21T19:51:17.881Z,28.98
2022-11-21T19:53:45.390Z,35.92
2022-11-21T19:56:14.916Z,30.75
2022-11-21T19:58:42.558Z,32.30
2022-11-21T20:01:14.507Z,32.22
2022-11-21T20:03:43.539Z,39.05
2022-11-21T20:06:31.127Z,31.80
2022-11-21T20:08:59.884Z,29.67
2022-11-21T20:11:28.356Z,36.78
2022-11-21T20:13:55.363Z,31.60
2022-11-21T20:16:31.927Z,37.30
2022-11-21T20:19:01.066Z,41.58
2022-11-21T20:21:28.563Z,37.47
2022-11-21T20:23:55.424Z,41.05
2022-11-21T20:26:23.261Z,36.40
2022-11-21T20:28:50.739Z,42.85
2022-11-21T20:31:23.158Z,39.70
2022-11-21T20:33:52.152Z,41.95
2022-11-21T20:36:24.526Z,42.13
2022-11-21T20:38:56.305Z,41.15
2022-11-21T20:41:25.313Z,35.15
2022-11-21T20:46:43.426Z,30.23
2022-11-21T20:49:10.666Z,35.13
2022-11-21T20:54:24.076Z,28.23
2022-11-21T20:56:50.862Z,41.03
2022-11-21T20:59:17.604Z,42.55
2022-11-21T21:01:44.381Z,32.05
2022-11-21T21:04:12.019Z,29.45
2022-11-21T21:06:39.501Z,34.80
2022-11-21T21:09:06.516Z,37.42
2022-11-21T21:14:21.242Z,41.13
2022-11-21T21:16:47.967Z,31.88
2022-11-21T21:19:14.712Z,31.33
2022-11-21T21:21:41.614Z,32.75
2022-11-21T21:24:10.913Z,29.35
2022-11-21T21:26:44.272Z,34.42
2022-11-21T21:29:13.752Z,40.72
2022-11-21T21:31:44.091Z,36.97
2022-11-21T21:34:16.530Z,33.88
2022-11-21T21:36:43.207Z,34.15
2022-11-21T21:39:09.882Z,34.58
2022-11-21T21:41:39.817Z,33.63
2022-11-21T21:44:06.883Z,34.88
2022-11-21T21:46:33.653Z,33.38
2022-11-21T21:49:00.354Z,33.60
2022-11-21T21:51:30.198Z,34.78
2022-11-21T21:53:58.901Z,33.42
2022-11-21T21:56:27.587Z,39.05
2022-11-21T21:58:54.773Z,37.75
2022-11-21T22:01:24.414Z,42.50
2022-11-21T22:03:56.623Z,36.67
2022-11-21T22:06:23.690Z,40.50
2022-11-21T22:08:50.760Z,32.08
2022-11-21T22:11:24.320Z,41.53
2022-11-21T22:13:59.698Z,36.97
2022-11-21T22:16:26.703Z,34.42
2022-11-21T22:18:54.029Z,39.45
2022-11-21T22:21:28.453Z,40.15
2022-11-21T22:24:23.518Z,39.00
2022-11-21T22:26:43.581Z,29.75
2022-11-21T22:29:10.338Z,36.00
2022-11-21T22:31:37.473Z,31.70
2022-11-21T22:34:04.541Z,33.55
2022-11-21T22:36:31.287Z,32.88
2022-11-21T22:38:57.960Z,31.38
2022-11-21T22:41:26.833Z,31.33
2022-11-21T22:43:55.779Z,32.08
2022-11-21T22:46:24.329Z,29.52
2022-11-21T22:48:51.275Z,26.83
2022-11-21T22:51:20.685Z,30.70
2022-11-21T22:53:48.523Z,29.00
2022-11-21T22:56:17.604Z,28.75
2022-11-21T22:58:45.708Z,32.90
2022-11-21T23:01:23.945Z,31.85
2022-11-21T23:03:51.466Z,28.77
2022-11-21T23:06:20.285Z,27.60
2022-11-21T23:08:48.013Z,31.75
2022-11-21T23:11:22.593Z,26.50
2022-11-21T23:13:49.390Z,27.13
2022-11-21T23:16:17.009Z,34.63
2022-11-21T23:18:43.910Z,33.40
2022-11-21T23:21:11.951Z,31.73
2022-11-21T23:23:39.062Z,32.10
2022-11-21T23:26:06.623Z,32.55
2022-11-21T23:28:33.979Z,29.55
2022-11-21T23:31:01.151Z,32.88
2022-11-21T23:33:28.073Z,31.08
2022-11-21T23:35:54.893Z,37.42
2022-11-21T23:38:21.897Z,32.30
2022-11-21T23:40:49.680Z,41.80
2022-11-21T23:43:17.512Z,33.25
2022-11-21T23:45:45.309Z,31.65
2022-11-21T23:48:12.078Z,33.70
2022-11-21T23:50:38.812Z,30.05
2022-11-21T23:53:05.633Z,34.63
2022-11-21T23:55:32.458Z,31.08
2022-11-21T23:57:59.520Z,27.88
